createdAt,value
2018-04-30T00:00:42.867Z,60.40
2018-04-30T00:05:45.297Z,61.60
2018-04-30T00:10:47.752Z,60.90
2018-04-30T00:15:50.213Z,61.00
2018-04-30T00:20:52.667Z,61.20
2018-04-30T00:25:55.113Z,61.10
2018-04-30T00:30:57.559Z,61.20
2018-04-30T00:47:01.062Z,61.40
2018-04-30T00:52:03.530Z,61.40
2018-04-30T00:57:06.749Z,61.30
2018-04-30T01:02:09.222Z,61.10
2018-04-30T01:07:12.465Z,61.90
2018-04-30T01:12:18.686Z,61.80
2018-04-30T01:17:21.164Z,62.20
2018-04-30T01:22:23.664Z,62.50
2018-04-30T01:27:26.267Z,62.90
2018-04-30T01:32:28.730Z,63.10
2018-04-30T01:37:31.945Z,63.40
2018-04-30T01:42:34.538Z,63.40
2018-04-30T01:47:40.088Z,64.00
2018-04-30T01:52:42.594Z,63.60
2018-04-30T01:57:45.049Z,63.60
2018-04-30T02:02:48.266Z,63.60
2018-04-30T02:07:51.591Z,63.60
2018-04-30T02:12:54.040Z,63.50
2018-04-30T02:17:56.602Z,63.60
2018-04-30T02:22:59.043Z,63.70
2018-04-30T02:28:02.257Z,64.40
2018-04-30T02:33:05.472Z,64.70
2018-04-30T02:38:08.680Z,64.80
2018-04-30T02:43:11.900Z,64.70
2018-04-30T02:48:15.303Z,64.90
2018-04-30T02:53:18.514Z,65.20
2018-04-30T02:58:21.752Z,65.50
2018-04-30T03:03:24.306Z,65.40
2018-04-30T03:08:26.849Z,65.70
2018-04-30T03:13:29.329Z,66.10
2018-04-30T03:18:31.823Z,66.50
2018-04-30T03:23:34.271Z,66.80
2018-04-30T03:28:38.861Z,67.10
2018-04-30T03:33:41.327Z,67.30
2018-04-30T03:38:44.543Z,69.20
2018-04-30T03:43:47.759Z,69.20
2018-04-30T03:49:01.899Z,69.10
2018-04-30T03:59:29.630Z,70.10
2018-04-30T04:04:45.306Z,70.40
2018-04-30T04:09:47.761Z,70.30
2018-04-30T04:14:50.231Z,70.30
2018-04-30T04:20:00.030Z,71.00
2018-04-30T04:25:02.484Z,70.90
2018-04-30T04:30:04.969Z,71.90
2018-04-30T04:35:08.182Z,73.70
2018-04-30T04:40:12.585Z,73.50
2018-04-30T04:45:15.835Z,74.80
2018-04-30T04:50:31.978Z,75.20
2018-04-30T04:55:39.598Z,75.10
2018-04-30T05:00:42.060Z,75.20
2018-04-30T05:05:45.287Z,75.80
2018-04-30T05:11:00.542Z,75.60
2018-04-30T05:16:05.992Z,75.70
2018-04-30T05:21:08.466Z,75.80
2018-04-30T05:26:10.925Z,75.80
2018-04-30T05:31:13.393Z,76.00
2018-04-30T05:36:16.607Z,76.30
2018-04-30T05:41:19.822Z,76.30
2018-04-30T05:46:22.279Z,76.20
2018-04-30T05:51:26.244Z,76.60
2018-04-30T05:56:28.688Z,76.60
2018-04-30T06:01:32.060Z,76.70
2018-04-30T06:06:34.629Z,76.90
2018-04-30T06:11:37.859Z,76.60
2018-04-30T06:16:41.078Z,76.30
2018-04-30T06:21:43.529Z,76.30
2018-04-30T06:26:46.027Z,75.70
2018-04-30T06:31:48.433Z,69.80
2018-04-30T06:36:51.765Z,67.30
2018-04-30T06:41:54.245Z,67.10
2018-04-30T06:46:57.471Z,66.90
2018-04-30T06:51:59.909Z,66.70
2018-04-30T06:57:02.351Z,67.40
2018-04-30T07:02:04.797Z,67.40
2018-04-30T07:14:57.463Z,68.00
2018-04-30T07:20:06.115Z,69.50
2018-04-30T07:25:08.566Z,70.20
2018-04-30T07:30:11.802Z,72.10
2018-04-30T07:35:15.050Z,72.20
2018-04-30T07:40:17.500Z,71.90
2018-04-30T07:45:19.943Z,72.20
2018-04-30T07:50:22.398Z,72.10
2018-04-30T07:55:24.846Z,71.40
2018-04-30T08:00:27.294Z,69.70
2018-04-30T08:05:29.745Z,68.80
2018-04-30T08:10:32.955Z,69.70
2018-04-30T08:15:36.192Z,69.60
2018-04-30T08:20:38.646Z,69.40
2018-04-30T08:25:41.101Z,70.00
2018-04-30T08:30:43.543Z,70.00
2018-04-30T08:35:46.846Z,70.40
2018-04-30T08:40:51.691Z,70.50
2018-04-30T08:45:54.136Z,70.40
2018-04-30T08:50:57.197Z,69.70
2018-04-30T08:56:00.460Z,66.40
2018-04-30T09:01:02.905Z,66.30
2018-04-30T09:06:06.121Z,64.60
2018-04-30T09:11:09.330Z,64.60
2018-04-30T09:16:11.778Z,64.60
2018-04-30T09:21:14.242Z,64.70
2018-04-30T09:26:16.699Z,64.40
2018-04-30T09:31:19.907Z,64.90
2018-04-30T09:36:31.025Z,64.40
2018-04-30T09:41:33.605Z,63.40
2018-04-30T09:46:36.802Z,62.30
2018-04-30T09:51:40.174Z,63.30
2018-04-30T09:56:42.614Z,63.00
2018-04-30T10:01:46.747Z,62.30
2018-04-30T10:06:49.210Z,61.70
2018-04-30T10:11:57.864Z,63.10
2018-04-30T10:17:00.325Z,64.20
2018-04-30T10:22:02.771Z,64.50
2018-04-30T10:27:06.319Z,63.70
2018-04-30T10:32:09.591Z,63.40
2018-04-30T10:37:12.797Z,63.30
2018-04-30T10:42:16.161Z,62.50
2018-04-30T10:47:18.595Z,62.30
2018-04-30T10:52:21.817Z,63.20
2018-04-30T10:57:25.041Z,60.80
2018-04-30T11:02:40.027Z,60.60
2018-04-30T11:07:42.623Z,59.60
2018-04-30T11:12:46.958Z,59.70
2018-04-30T11:17:49.649Z,59.70
2018-04-30T11:22:59.960Z,59.70
2018-04-30T11:28:02.470Z,58.30
2018-04-30T11:33:04.934Z,57.30
2018-04-30T11:38:07.394Z,55.90
2018-04-30T11:43:10.632Z,56.90
2018-04-30T11:48:13.096Z,56.80
2018-04-30T11:53:16.303Z,54.20
2018-04-30T11:58:19.508Z,54.20
2018-04-30T12:03:22.828Z,52.00
2018-04-30T12:08:25.797Z,51.80
2018-04-30T12:13:28.250Z,51.30
2018-04-30T12:18:30.703Z,50.70
2018-04-30T12:23:36.531Z,50.20
2018-04-30T12:28:39.025Z,49.90
2018-04-30T12:33:41.506Z,50.40
2018-04-30T12:38:43.963Z,50.90
2018-04-30T12:43:46.492Z,50.00
2018-04-30T12:48:48.866Z,51.00
2018-04-30T12:53:51.315Z,50.60
2018-04-30T12:58:53.776Z,48.60
2018-04-30T13:03:56.226Z,47.80
2018-04-30T13:08:59.521Z,46.60
2018-04-30T13:14:02.665Z,47.80
2018-04-30T13:19:05.109Z,47.80
2018-04-30T13:24:07.559Z,47.50
2018-04-30T13:29:10.051Z,48.40
2018-04-30T13:34:12.498Z,47.90
2018-04-30T13:39:14.989Z,48.70
2018-04-30T13:44:30.470Z,48.60
2018-04-30T13:49:32.944Z,48.30
2018-04-30T13:54:35.425Z,47.50
2018-04-30T13:59:37.827Z,46.30
2018-04-30T14:04:40.275Z,46.80
2018-04-30T14:09:43.478Z,47.80
2018-04-30T14:15:05.749Z,47.90
2018-04-30T14:20:09.180Z,47.10
2018-04-30T14:25:12.461Z,45.60
2018-04-30T14:30:15.690Z,45.80
2018-04-30T14:35:19.041Z,46.30
2018-04-30T14:40:21.518Z,46.20
2018-04-30T14:45:24.105Z,46.30
2018-04-30T14:50:26.547Z,45.90
2018-04-30T14:55:28.985Z,46.70
2018-04-30T15:00:31.490Z,47.50
2018-04-30T15:05:33.937Z,46.70
2018-04-30T15:10:43.462Z,49.20
2018-04-30T15:15:45.922Z,49.20
2018-04-30T15:20:48.370Z,48.00
2018-04-30T15:25:50.819Z,47.90
2018-04-30T15:30:53.266Z,47.80
2018-04-30T15:35:56.587Z,55.10
2018-04-30T15:40:58.954Z,55.10
2018-04-30T15:46:01.399Z,54.90
2018-04-30T15:51:06.882Z,53.10
2018-04-30T15:56:09.826Z,51.80
2018-04-30T16:01:17.124Z,50.30
2018-04-30T16:11:26.760Z,49.70
2018-04-30T16:16:29.350Z,49.30
2018-04-30T16:21:32.693Z,48.80
2018-04-30T16:26:35.255Z,48.60
2018-04-30T16:31:38.628Z,47.80
2018-04-30T16:36:42.607Z,47.70
2018-04-30T16:41:45.041Z,47.70
2018-04-30T16:46:48.170Z,49.10
2018-04-30T16:51:50.683Z,50.60
2018-04-30T16:56:53.591Z,49.20
2018-04-30T17:01:57.305Z,51.30
2018-04-30T17:07:01.142Z,51.20
2018-04-30T17:12:04.547Z,51.20
2018-04-30T17:17:17.652Z,51.10
2018-04-30T17:22:20.102Z,51.90
2018-04-30T17:27:22.553Z,52.70
2018-04-30T17:32:25.005Z,53.00
2018-04-30T17:37:27.465Z,52.80
2018-04-30T17:42:30.703Z,53.80
2018-04-30T17:47:33.163Z,53.70
2018-04-30T17:52:36.370Z,54.50
2018-04-30T17:57:42.260Z,54.50
2018-04-30T18:02:44.840Z,54.50
2018-04-30T18:07:50.653Z,54.60
2018-04-30T18:18:09.354Z,54.20
2018-04-30T18:23:11.814Z,54.00
2018-04-30T18:28:15.048Z,54.10
2018-04-30T18:33:17.557Z,53.90
2018-04-30T18:38:20.760Z,53.70
2018-04-30T18:43:23.222Z,53.60
2018-04-30T18:48:49.900Z,53.90
2018-04-30T18:53:52.413Z,53.70
2018-04-30T18:58:54.876Z,53.90
2018-04-30T19:03:57.363Z,53.90
2018-04-30T19:09:14.950Z,54.40
2018-04-30T19:14:17.562Z,54.30
2018-04-30T19:19:20.041Z,54.40
2018-04-30T19:24:22.506Z,54.70
2018-04-30T19:29:24.959Z,54.80
2018-04-30T19:34:44.754Z,54.60
2018-04-30T19:39:47.231Z,54.00
2018-04-30T19:44:49.686Z,54.30
2018-04-30T19:49:52.145Z,54.40
2018-04-30T19:54:55.455Z,54.80
2018-04-30T19:59:57.898Z,54.70
2018-04-30T20:05:00.358Z,55.00
2018-04-30T20:10:15.195Z,55.20
2018-04-30T20:15:17.651Z,55.20
2018-04-30T20:20:20.150Z,55.30
2018-04-30T20:25:22.541Z,55.60
2018-04-30T20:30:24.995Z,55.40
2018-04-30T20:35:28.220Z,55.80
2018-04-30T20:40:31.435Z,55.60
2018-04-30T20:45:33.889Z,55.60
2018-04-30T20:50:39.653Z,55.30
2018-04-30T20:55:42.161Z,54.90
2018-04-30T21:00:44.608Z,54.70
2018-04-30T21:05:58.446Z,54.40
2018-04-30T21:11:00.924Z,54.40
2018-04-30T21:16:04.129Z,53.50
2018-04-30T21:21:21.416Z,52.00
2018-04-30T21:26:23.853Z,51.90
2018-04-30T21:31:27.066Z,52.10
2018-04-30T21:36:30.791Z,52.00
2018-04-30T21:41:34.315Z,51.40
2018-04-30T21:46:37.526Z,51.90
2018-04-30T21:51:40.749Z,52.00
2018-04-30T21:56:43.193Z,51.90
2018-04-30T22:01:48.431Z,51.90
2018-04-30T22:06:50.981Z,52.20
2018-04-30T22:11:54.186Z,52.00
2018-04-30T22:16:57.401Z,51.80
2018-04-30T22:22:00.629Z,51.30
2018-04-30T22:27:03.813Z,51.30
2018-04-30T22:32:06.835Z,51.00
2018-04-30T22:37:09.312Z,51.00
2018-04-30T22:42:11.770Z,50.90
2018-04-30T22:47:14.226Z,50.90
2018-04-30T22:52:16.668Z,50.90
2018-04-30T22:57:19.115Z,51.20
2018-04-30T23:02:21.563Z,51.40
2018-04-30T23:07:24.014Z,51.20
2018-04-30T23:12:26.467Z,50.70
2018-04-30T23:17:31.718Z,50.10
2018-04-30T23:22:36.975Z,50.00
2018-04-30T23:27:47.580Z,50.60
2018-04-30T23:32:50.072Z,50.50
2018-04-30T23:37:52.518Z,50.30
2018-04-30T23:42:54.970Z,49.90
2018-04-30T23:47:57.427Z,50.00
2018-04-30T23:53:01.415Z,50.70
2018-04-30T23:58:03.938Z,50.50
